createdAt,value
2022-10-23T00:01:50.847Z,16.24
2022-10-23T00:04:22.601Z,15.74
2022-10-23T00:06:50.009Z,15.58
2022-10-23T00:09:20.411Z,15.62
2022-10-23T00:11:48.189Z,15.48
2022-10-23T00:14:15.830Z,15.38
2022-10-23T00:16:42.399Z,15.12
2022-10-23T00:19:09.366Z,15.44
2022-10-23T00:21:36.705Z,14.91
2022-10-23T00:24:03.492Z,15.11
2022-10-23T00:26:30.119Z,15.14
2022-10-23T00:28:57.091Z,15.11
2022-10-23T00:31:24.793Z,15.10
2022-10-23T00:33:51.744Z,15.60
2022-10-23T00:36:20.426Z,15.03
2022-10-23T00:38:47.531Z,15.28
2022-10-23T00:41:19.975Z,15.22
2022-10-23T00:44:07.975Z,15.00
2022-10-23T00:46:36.747Z,15.17
2022-10-23T00:49:05.266Z,14.96
2022-10-23T00:51:44.928Z,15.08
2022-10-23T00:54:29.163Z,15.04
2022-10-23T00:57:01.663Z,14.98
2022-10-23T00:59:29.341Z,15.17
2022-10-23T01:01:56.015Z,15.40
2022-10-23T01:04:24.049Z,15.54
2022-10-23T01:07:09.518Z,15.17
2022-10-23T01:09:55.739Z,15.27
2022-10-23T01:12:31.310Z,15.05
2022-10-23T01:15:21.705Z,15.09
2022-10-23T01:18:02.226Z,15.12
2022-10-23T01:20:40.864Z,15.21
2022-10-23T01:23:37.817Z,15.36
2022-10-23T01:26:25.976Z,15.49
2022-10-23T01:29:13.520Z,15.43
2022-10-23T01:31:44.930Z,15.37
2022-10-23T01:34:20.954Z,15.48
2022-10-23T01:36:49.250Z,15.33
2022-10-23T01:39:21.939Z,15.44
2022-10-23T01:42:00.046Z,15.23
2022-10-23T01:44:36.835Z,15.31
2022-10-23T01:47:08.515Z,15.35
2022-10-23T01:49:48.594Z,15.17
2022-10-23T01:52:17.517Z,15.11
2022-10-23T01:54:47.558Z,15.15
2022-10-23T01:57:18.133Z,14.99
2022-10-23T01:59:49.552Z,15.10
2022-10-23T02:02:18.944Z,14.87
2022-10-23T02:05:07.782Z,14.71
2022-10-23T02:07:35.130Z,14.64
2022-10-23T02:10:04.972Z,14.70
2022-10-23T02:12:54.918Z,14.84
2022-10-23T02:15:30.875Z,14.92
2022-10-23T02:18:00.418Z,15.28
2022-10-23T02:20:41.151Z,15.42
2022-10-23T02:23:17.237Z,14.70
2022-10-23T02:26:13.751Z,14.67
2022-10-23T02:28:45.745Z,14.59
2022-10-23T02:31:16.895Z,14.73
2022-10-23T02:33:46.710Z,14.68
2022-10-23T02:36:14.092Z,14.44
2022-10-23T02:38:43.493Z,14.35
2022-10-23T02:41:37.833Z,14.39
2022-10-23T02:44:28.415Z,14.53
2022-10-23T02:47:18.221Z,14.91
2022-10-23T02:50:09.497Z,14.67
2022-10-23T02:53:03.122Z,14.69
2022-10-23T02:56:01.859Z,15.12
2022-10-23T02:58:42.830Z,15.05
2022-10-23T03:01:22.871Z,14.63
2022-10-23T03:03:56.581Z,14.72
2022-10-23T03:06:24.347Z,14.57
2022-10-23T03:09:07.585Z,14.44
2022-10-23T03:11:34.322Z,14.51
2022-10-23T03:14:00.903Z,14.53
2022-10-23T03:16:27.880Z,14.58
2022-10-23T03:18:55.132Z,14.47
2022-10-23T03:21:21.990Z,14.67
2022-10-23T03:23:52.107Z,14.57
2022-10-23T03:26:24.889Z,14.82
2022-10-23T03:28:51.530Z,14.75
2022-10-23T03:31:20.349Z,14.57
2022-10-23T03:33:49.279Z,14.38
2022-10-23T03:36:15.856Z,14.42
2022-10-23T03:38:43.075Z,14.53
2022-10-23T03:41:10.550Z,14.80
2022-10-23T03:43:37.178Z,14.67
2022-10-23T03:46:08.978Z,14.91
2022-10-23T03:48:38.172Z,14.46
2022-10-23T03:51:05.988Z,14.06
2022-10-23T03:53:32.592Z,14.25
2022-10-23T03:56:01.927Z,14.24
2022-10-23T03:58:28.626Z,14.72
2022-10-23T04:00:55.837Z,14.56
2022-10-23T04:03:22.957Z,14.44
2022-10-23T04:05:52.245Z,14.38
2022-10-23T04:08:21.650Z,14.55
2022-10-23T04:10:51.239Z,14.39
2022-10-23T04:13:21.167Z,14.65
2022-10-23T04:15:49.598Z,14.70
2022-10-23T04:18:16.853Z,14.76
2022-10-23T04:20:43.495Z,14.84
2022-10-23T04:23:10.847Z,14.72
2022-10-23T04:25:40.352Z,14.81
2022-10-23T04:28:08.034Z,14.51
2022-10-23T04:30:38.268Z,14.73
2022-10-23T04:33:05.636Z,14.67
2022-10-23T04:35:32.311Z,14.49
2022-10-23T04:37:59.575Z,14.44
2022-10-23T04:40:26.105Z,14.13
2022-10-23T04:42:54.410Z,14.19
2022-10-23T04:45:21.390Z,14.44
2022-10-23T04:47:47.988Z,14.51
2022-10-23T04:50:15.097Z,14.54
2022-10-23T04:53:10.997Z,14.68
2022-10-23T04:55:57.770Z,14.80
2022-10-23T04:58:48.422Z,14.79
2022-10-23T05:01:15.153Z,14.59
2022-10-23T05:03:42.124Z,14.68
2022-10-23T05:06:09.046Z,14.67
2022-10-23T05:08:50.241Z,14.58
2022-10-23T05:11:39.682Z,14.79
2022-10-23T05:14:08.397Z,14.70
2022-10-23T05:16:44.381Z,14.20
2022-10-23T05:19:20.693Z,14.41
2022-10-23T05:21:55.685Z,14.15
2022-10-23T05:24:26.079Z,13.85
2022-10-23T05:26:57.719Z,14.20
2022-10-23T05:29:24.235Z,14.03
2022-10-23T05:31:56.678Z,14.41
2022-10-23T05:34:26.526Z,14.28
2022-10-23T05:36:53.452Z,14.29
2022-10-23T05:39:23.747Z,14.29
2022-10-23T05:41:52.917Z,14.21
2022-10-23T05:44:23.034Z,14.02
2022-10-23T05:47:17.276Z,14.34
2022-10-23T05:49:59.277Z,14.51
2022-10-23T05:52:49.323Z,14.27
2022-10-23T05:55:48.063Z,13.92
2022-10-23T05:58:38.281Z,14.25
2022-10-23T06:01:14.827Z,13.98
2022-10-23T06:04:07.307Z,14.04
2022-10-23T06:07:03.897Z,14.29
2022-10-23T06:09:31.164Z,14.35
2022-10-23T06:11:58.382Z,14.04
2022-10-23T06:14:24.911Z,14.22
2022-10-23T06:16:52.268Z,13.98
2022-10-23T06:19:19.451Z,13.98
2022-10-23T06:21:49.146Z,14.09
2022-10-23T06:24:16.466Z,14.08
2022-10-23T06:26:54.616Z,13.98
2022-10-23T06:29:31.965Z,13.80
2022-10-23T06:31:58.602Z,14.15
2022-10-23T06:34:25.208Z,14.29
2022-10-23T06:36:51.803Z,14.23
2022-10-23T06:39:36.989Z,14.18
2022-10-23T06:42:15.031Z,14.04
2022-10-23T06:45:08.238Z,14.23
2022-10-23T06:47:55.007Z,14.33
2022-10-23T06:50:52.707Z,14.30
2022-10-23T06:53:24.922Z,14.14
2022-10-23T06:56:00.681Z,14.27
2022-10-23T06:58:27.745Z,14.39
2022-10-23T07:01:02.796Z,14.35
2022-10-23T07:03:29.435Z,14.23
2022-10-23T07:05:56.053Z,13.94
2022-10-23T07:08:23.798Z,14.24
2022-10-23T07:10:52.597Z,14.08
2022-10-23T07:13:19.711Z,14.54
2022-10-23T07:16:21.148Z,14.35
2022-10-23T07:18:50.312Z,14.45
2022-10-23T07:21:31.223Z,14.52
2022-10-23T07:24:18.030Z,14.75
2022-10-23T07:26:45.006Z,14.55
2022-10-23T07:29:13.430Z,14.71
2022-10-23T07:31:41.455Z,14.55
2022-10-23T07:34:32.032Z,14.57
2022-10-23T07:37:19.203Z,14.66
2022-10-23T07:39:45.793Z,14.55
2022-10-23T07:42:12.423Z,14.73
2022-10-23T07:44:40.979Z,14.80
2022-10-23T07:47:07.595Z,14.59
2022-10-23T07:49:34.238Z,14.60
2022-10-23T07:52:01.015Z,14.70
2022-10-23T07:54:37.407Z,14.86
2022-10-23T07:57:16.464Z,15.03
2022-10-23T07:59:47.139Z,14.74
2022-10-23T08:02:18.383Z,14.86
2022-10-23T08:04:49.128Z,14.98
2022-10-23T08:07:26.719Z,15.09
2022-10-23T08:09:56.203Z,15.11
2022-10-23T08:12:22.780Z,15.12
2022-10-23T08:14:49.348Z,15.24
2022-10-23T08:17:16.277Z,15.10
2022-10-23T08:20:00.804Z,15.15
2022-10-23T08:22:35.075Z,15.24
2022-10-23T08:25:02.459Z,15.34
2022-10-23T08:27:29.976Z,15.40
2022-10-23T08:29:56.540Z,15.53
2022-10-23T08:32:23.530Z,15.34
2022-10-23T08:34:56.081Z,15.37
2022-10-23T08:37:24.278Z,15.46
2022-10-23T08:39:53.221Z,15.38
2022-10-23T08:42:27.535Z,15.58
2022-10-23T08:45:05.970Z,15.76
2022-10-23T08:47:44.581Z,15.79
2022-10-23T08:50:41.007Z,15.92
2022-10-23T08:53:52.460Z,15.96
2022-10-23T08:56:28.783Z,15.95
2022-10-23T08:59:19.838Z,16.04
2022-10-23T09:02:32.847Z,16.14
2022-10-23T09:04:59.786Z,16.22
2022-10-23T09:08:00.259Z,16.38
2022-10-23T09:10:54.646Z,16.37
2022-10-23T09:13:44.071Z,16.48
2022-10-23T09:16:23.372Z,16.60
2022-10-23T09:18:50.217Z,16.54
2022-10-23T09:21:17.173Z,16.74
2022-10-23T09:23:44.050Z,16.83
2022-10-23T09:26:17.048Z,16.87
2022-10-23T09:28:47.837Z,16.97
2022-10-23T09:31:15.148Z,17.04
2022-10-23T09:33:41.704Z,17.05
2022-10-23T09:36:12.449Z,16.91
2022-10-23T09:38:53.038Z,16.93
2022-10-23T09:41:35.544Z,16.96
2022-10-23T09:44:07.916Z,17.07
2022-10-23T09:46:53.474Z,17.27
2022-10-23T09:49:28.879Z,17.36
2022-10-23T09:52:05.852Z,17.32
2022-10-23T09:54:36.955Z,17.49
2022-10-23T09:57:23.437Z,17.66
2022-10-23T10:00:01.968Z,17.75
2022-10-23T10:02:38.263Z,17.77
2022-10-23T10:05:34.975Z,17.81
2022-10-23T10:08:10.705Z,17.94
2022-10-23T10:10:48.109Z,18.12
2022-10-23T10:13:37.180Z,18.21
2022-10-23T10:16:16.680Z,18.22
2022-10-23T10:18:43.138Z,18.26
2022-10-23T10:21:15.718Z,18.19
2022-10-23T10:24:08.009Z,18.25
2022-10-23T10:30:53.079Z,18.33
2022-10-23T10:33:35.622Z,18.43
2022-10-23T10:36:15.161Z,18.54
2022-10-23T10:38:47.798Z,18.44
2022-10-23T10:41:20.421Z,18.47
2022-10-23T10:44:05.997Z,18.57
2022-10-23T10:46:56.265Z,18.68
2022-10-23T10:49:38.145Z,18.65
2022-10-23T10:52:40.155Z,18.77
2022-10-23T10:55:20.712Z,18.83
2022-10-23T10:57:59.184Z,18.85
2022-10-23T11:00:28.497Z,18.74
2022-10-23T11:03:02.743Z,18.99
2022-10-23T11:05:37.245Z,19.24
2022-10-23T11:08:17.992Z,19.26
2022-10-23T11:10:48.151Z,19.28
2022-10-23T11:13:30.445Z,19.40
2022-10-23T11:16:02.712Z,19.58
2022-10-23T11:18:32.401Z,19.59
2022-10-23T11:21:17.483Z,19.67
2022-10-23T11:24:17.844Z,19.76
2022-10-23T11:26:47.347Z,19.80
2022-10-23T11:29:41.898Z,19.83
2022-10-23T11:32:20.662Z,19.84
2022-10-23T11:34:55.961Z,19.84
2022-10-23T11:37:22.839Z,20.07
2022-10-23T11:40:15.365Z,19.98
2022-10-23T11:42:42.295Z,19.93
2022-10-23T11:45:29.031Z,20.24
2022-10-23T11:48:04.688Z,20.31
2022-10-23T11:50:51.207Z,20.38
2022-10-23T11:53:47.068Z,20.54
2022-10-23T11:56:14.637Z,20.70
2022-10-23T11:58:49.749Z,20.82
2022-10-23T12:01:16.402Z,20.91
2022-10-23T12:03:52.699Z,21.04
2022-10-23T12:06:24.851Z,21.12
2022-10-23T12:08:55.337Z,21.22
2022-10-23T12:11:42.271Z,21.27
2022-10-23T12:14:30.630Z,21.18
2022-10-23T12:16:57.396Z,21.42
2022-10-23T12:19:26.560Z,21.48
2022-10-23T12:21:58.325Z,21.60
2022-10-23T12:24:39.871Z,21.64
2022-10-23T12:27:30.787Z,21.78
2022-10-23T12:30:18.709Z,21.69
2022-10-23T12:33:14.332Z,21.66
2022-10-23T12:36:11.804Z,21.76
2022-10-23T12:38:49.800Z,21.76
2022-10-23T12:41:31.830Z,21.69
2022-10-23T12:44:01.401Z,21.73
2022-10-23T12:46:32.846Z,21.87
2022-10-23T12:49:01.258Z,22.11
2022-10-23T12:51:31.613Z,22.14
2022-10-23T12:53:58.441Z,22.28
2022-10-23T12:56:28.518Z,22.26
2022-10-23T12:59:01.360Z,22.30
2022-10-23T13:01:32.997Z,22.38
2022-10-23T13:04:13.447Z,22.50
2022-10-23T13:06:40.365Z,22.60
2022-10-23T13:09:22.172Z,22.71
2022-10-23T13:12:18.544Z,22.69
2022-10-23T13:15:12.465Z,22.83
2022-10-23T13:17:42.769Z,23.00
2022-10-23T13:20:18.614Z,23.07
2022-10-23T13:22:48.022Z,23.11
2022-10-23T13:25:29.348Z,22.88
2022-10-23T13:28:23.609Z,22.81
2022-10-23T13:31:04.247Z,22.88
2022-10-23T13:33:48.639Z,22.80
2022-10-23T13:36:15.124Z,22.78
2022-10-23T13:38:47.522Z,22.86
2022-10-23T13:41:17.659Z,22.90
2022-10-23T13:43:45.467Z,22.76
2022-10-23T13:46:20.605Z,22.83
2022-10-23T13:48:48.066Z,22.89
2022-10-23T13:51:15.834Z,22.79
2022-10-23T13:53:42.407Z,22.60
2022-10-23T13:56:12.322Z,22.74
2022-10-23T13:58:39.114Z,22.28
2022-10-23T14:01:06.969Z,22.58
2022-10-23T14:03:33.600Z,22.60
2022-10-23T14:06:01.452Z,22.52
2022-10-23T14:08:27.984Z,22.51
2022-10-23T14:10:54.620Z,22.69
2022-10-23T14:13:21.181Z,22.47
2022-10-23T14:15:53.976Z,22.07
2022-10-23T14:18:20.894Z,22.49
2022-10-23T14:20:47.463Z,22.52
2022-10-23T14:23:14.036Z,22.63
2022-10-23T14:25:40.570Z,22.65
2022-10-23T14:28:07.123Z,22.33
2022-10-23T14:30:37.109Z,21.88
2022-10-23T14:33:04.453Z,22.29
2022-10-23T14:35:31.003Z,22.36
2022-10-23T14:37:58.476Z,22.18
2022-10-23T14:40:25.516Z,22.50
2022-10-23T14:42:52.102Z,22.56
2022-10-23T14:45:18.668Z,22.39
2022-10-23T14:47:46.392Z,21.99
2022-10-23T14:50:13.772Z,22.33
2022-10-23T14:52:40.396Z,22.64
2022-10-23T14:55:07.318Z,22.52
2022-10-23T14:57:34.078Z,22.79
2022-10-23T15:00:00.601Z,22.73
2022-10-23T15:02:27.119Z,22.98
2022-10-23T15:04:53.646Z,22.82
2022-10-23T15:07:20.165Z,22.66
2022-10-23T15:09:46.753Z,22.48
2022-10-23T15:12:13.377Z,22.19
2022-10-23T15:14:39.973Z,22.25
2022-10-23T15:17:06.764Z,22.55
2022-10-23T15:19:33.391Z,22.38
2022-10-23T15:22:00.225Z,22.22
2022-10-23T15:24:26.903Z,22.03
2022-10-23T15:26:53.528Z,22.16
2022-10-23T15:29:20.481Z,22.54
2022-10-23T15:31:56.919Z,22.50
2022-10-23T15:34:26.397Z,22.38
2022-10-23T15:36:55.291Z,22.61
2022-10-23T15:39:25.172Z,22.53
2022-10-23T15:41:54.533Z,22.48
2022-10-23T15:44:23.833Z,22.48
2022-10-23T15:46:51.565Z,22.19
2022-10-23T15:49:18.695Z,22.20
2022-10-23T15:51:46.572Z,22.12
2022-10-23T15:54:19.171Z,21.88
2022-10-23T15:56:48.019Z,21.76
2022-10-23T15:59:15.575Z,21.56
2022-10-23T16:01:42.447Z,21.62
2022-10-23T16:04:10.221Z,21.49
2022-10-23T16:06:37.396Z,21.47
2022-10-23T16:09:04.002Z,21.42
2022-10-23T16:11:34.691Z,21.08
2022-10-23T16:14:03.112Z,21.15
2022-10-23T16:16:31.433Z,21.14
2022-10-23T16:19:03.460Z,21.08
2022-10-23T16:21:32.304Z,20.95
2022-10-23T16:24:00.765Z,21.13
2022-10-23T16:26:29.265Z,21.11
2022-10-23T16:28:58.210Z,21.16
2022-10-23T16:31:25.961Z,21.30
2022-10-23T16:33:53.499Z,21.10
2022-10-23T16:36:21.984Z,21.01
2022-10-23T16:39:09.866Z,21.01
2022-10-23T16:41:55.123Z,21.04
2022-10-23T16:44:25.930Z,20.89
2022-10-23T16:47:00.671Z,20.90
2022-10-23T16:49:29.703Z,21.04
2022-10-23T16:51:56.281Z,20.98
2022-10-23T16:54:22.881Z,20.80
2022-10-23T16:56:49.540Z,20.91
2022-10-23T16:59:16.112Z,21.00
2022-10-23T17:01:43.213Z,21.20
2022-10-23T17:04:09.885Z,21.12
2022-10-23T17:06:37.315Z,21.07
2022-10-23T17:09:05.051Z,21.08
2022-10-23T17:11:35.087Z,21.13
2022-10-23T17:14:08.062Z,21.03
2022-10-23T17:16:38.534Z,20.85
2022-10-23T17:19:15.955Z,20.70
2022-10-23T17:21:47.964Z,20.37
2022-10-23T17:24:14.541Z,20.09
2022-10-23T17:26:41.750Z,20.00
2022-10-23T17:29:10.304Z,19.82
2022-10-23T17:31:39.514Z,20.14
2022-10-23T17:34:10.303Z,20.03
2022-10-23T17:36:39.610Z,19.96
2022-10-23T17:39:08.311Z,19.91
2022-10-23T17:41:35.603Z,20.30
2022-10-23T17:44:02.936Z,20.47
2022-10-23T17:46:30.081Z,20.30
2022-10-23T17:48:58.019Z,20.70
2022-10-23T17:51:27.188Z,20.62
2022-10-23T17:53:55.899Z,20.44
2022-10-23T17:56:24.893Z,20.39
2022-10-23T17:58:58.883Z,20.41
2022-10-23T18:01:27.291Z,20.15
2022-10-23T18:03:55.859Z,20.13
2022-10-23T18:06:28.867Z,19.98
2022-10-23T18:08:56.763Z,19.82
2022-10-23T18:11:26.011Z,19.98
2022-10-23T18:13:53.665Z,19.78
2022-10-23T18:16:20.874Z,19.68
2022-10-23T18:18:48.608Z,19.86
2022-10-23T18:21:16.821Z,19.81
2022-10-23T18:23:43.501Z,19.70
2022-10-23T18:26:18.726Z,19.88
2022-10-23T18:28:47.324Z,20.11
2022-10-23T18:31:15.873Z,19.98
2022-10-23T18:33:43.317Z,20.00
2022-10-23T18:36:19.592Z,19.94
2022-10-23T18:38:46.551Z,20.06
2022-10-23T18:41:13.188Z,19.97
2022-10-23T18:43:44.496Z,19.96
2022-10-23T18:46:13.331Z,19.83
2022-10-23T18:48:40.763Z,19.93
2022-10-23T18:51:18.982Z,19.91
2022-10-23T18:53:48.660Z,19.97
2022-10-23T18:56:21.735Z,20.04
2022-10-23T18:58:58.447Z,19.97
2022-10-23T19:01:27.420Z,19.96
2022-10-23T19:06:23.564Z,19.79
2022-10-23T19:08:50.644Z,19.93
2022-10-23T19:11:19.782Z,19.83
2022-10-23T19:22:30.098Z,19.37
2022-10-23T19:25:10.222Z,19.19
2022-10-23T19:27:38.620Z,19.05
2022-10-23T19:30:12.665Z,19.04
2022-10-23T19:32:43.598Z,19.02
2022-10-23T19:35:10.800Z,19.08
2022-10-23T19:37:37.784Z,19.08
2022-10-23T19:40:06.669Z,18.97
2022-10-23T19:42:34.206Z,18.93
2022-10-23T19:45:01.285Z,19.02
2022-10-23T19:47:27.866Z,19.13
2022-10-23T19:49:54.425Z,18.84
2022-10-23T19:52:22.152Z,19.02
2022-10-23T19:54:49.435Z,18.97
2022-10-23T19:57:19.225Z,18.82
2022-10-23T19:59:52.597Z,19.18
2022-10-23T20:02:20.213Z,18.79
2022-10-23T20:04:47.098Z,18.93
2022-10-23T20:07:13.925Z,18.78
2022-10-23T20:09:40.590Z,18.70
2022-10-23T20:12:07.367Z,18.65
2022-10-23T20:14:34.250Z,18.72
2022-10-23T20:17:01.580Z,18.68
2022-10-23T20:19:28.821Z,18.62
2022-10-23T20:21:55.432Z,18.65
2022-10-23T20:24:22.223Z,18.70
2022-10-23T20:26:51.531Z,18.54
2022-10-23T20:29:18.753Z,18.71
2022-10-23T20:31:45.484Z,18.45
2022-10-23T20:34:12.452Z,18.67
2022-10-23T20:36:45.645Z,18.63
2022-10-23T20:39:21.813Z,18.75
2022-10-23T20:41:48.473Z,18.56
2022-10-23T20:46:43.788Z,18.52
2022-10-23T20:49:11.919Z,18.50
2022-10-23T20:51:38.453Z,18.57
2022-10-23T20:54:06.101Z,18.59
2022-10-23T20:56:35.128Z,18.58
2022-10-23T20:59:11.664Z,18.59
2022-10-23T21:01:43.630Z,18.64
2022-10-23T21:04:12.987Z,18.70
2022-10-23T21:06:51.939Z,18.73
2022-10-23T21:09:29.881Z,18.74
2022-10-23T21:11:56.477Z,18.71
2022-10-23T21:14:23.041Z,18.80
2022-10-23T21:16:49.823Z,18.85
2022-10-23T21:19:16.533Z,18.93
2022-10-23T21:21:43.986Z,18.73
2022-10-23T21:24:14.890Z,18.59
2022-10-23T21:26:41.650Z,18.69
2022-10-23T21:29:21.115Z,18.59
2022-10-23T21:31:59.367Z,18.44
2022-10-23T21:34:26.628Z,18.42
2022-10-23T21:37:12.342Z,18.63
2022-10-23T21:39:40.359Z,18.46
2022-10-23T21:42:06.949Z,18.53
2022-10-23T21:44:33.573Z,18.60
2022-10-23T21:47:00.109Z,18.53
2022-10-23T21:49:26.698Z,18.53
2022-10-23T21:51:54.847Z,18.57
2022-10-23T21:54:21.764Z,18.51
2022-10-23T21:56:50.752Z,18.65
2022-10-23T21:59:21.901Z,18.64
2022-10-23T22:01:48.801Z,18.63
2022-10-23T22:04:17.452Z,18.63
2022-10-23T22:06:46.181Z,18.75
2022-10-23T22:09:15.329Z,18.54
2022-10-23T22:11:42.379Z,18.76
2022-10-23T22:14:08.936Z,18.69
2022-10-23T22:16:35.537Z,18.77
2022-10-23T22:19:02.156Z,18.75
2022-10-23T22:21:29.997Z,18.62
2022-10-23T22:23:58.500Z,18.68
2022-10-23T22:26:32.423Z,18.72
2022-10-23T22:29:01.547Z,18.76
2022-10-23T22:31:31.529Z,18.80
2022-10-23T22:33:58.669Z,18.86
2022-10-23T22:36:26.023Z,18.99
2022-10-23T22:38:53.187Z,18.95
2022-10-23T22:41:20.152Z,19.12
2022-10-23T22:43:46.794Z,19.06
2022-10-23T22:46:18.662Z,18.97
2022-10-23T22:48:45.948Z,18.94
2022-10-23T22:51:14.447Z,18.89
2022-10-23T22:53:41.488Z,19.11
2022-10-23T22:56:10.868Z,19.14
2022-10-23T22:58:37.538Z,19.09
2022-10-23T23:01:11.846Z,18.97
2022-10-23T23:03:38.953Z,19.00
2022-10-23T23:06:07.086Z,18.97
2022-10-23T23:08:35.022Z,19.09
2022-10-23T23:11:02.149Z,19.11
2022-10-23T23:13:28.772Z,18.92
2022-10-23T23:15:56.044Z,18.92
2022-10-23T23:18:22.712Z,18.94
2022-10-23T23:20:49.670Z,19.00
2022-10-23T23:23:16.802Z,19.08
2022-10-23T23:25:45.529Z,19.02
2022-10-23T23:28:13.358Z,18.65
2022-10-23T23:30:41.161Z,18.92
2022-10-23T23:33:08.432Z,18.61
2022-10-23T23:35:38.688Z,18.75
2022-10-23T23:38:05.249Z,18.72
2022-10-23T23:40:31.795Z,18.54
2022-10-23T23:42:58.353Z,18.53
2022-10-23T23:45:24.959Z,18.63
2022-10-23T23:47:51.598Z,18.39
2022-10-23T23:50:18.283Z,18.33
2022-10-23T23:52:44.847Z,18.35
2022-10-23T23:55:12.010Z,18.19
2022-10-23T23:57:38.630Z,18.17
